Time;durP1;ratioP1;P1;durP2;ratioP2;P2;SDS_P1;SDS_P2;PMS_P1;PMS_P2;Temp;Humidity;BMP_temperature;BMP_pressure;BME280_temperature;BME280_humidity;BME280_pressure;Samples;Min_cycle;Max_cycle;Signal;HPM_P1;HPM_P2
2023/01/06 00:02:23;;;;;;;2.90;2.70;;;10.40;99.90;;;;;;5019138;28;20650;-81
2023/01/06 00:04:50;;;;;;;5.38;2.65;;;10.40;99.90;;;;;;5019299;28;20196;-81
2023/01/06 00:07:18;;;;;;;2.40;2.30;;;10.30;99.90;;;;;;5017017;28;20227;-80
2023/01/06 00:09:45;;;;;;;1.98;1.88;;;10.40;99.90;;;;;;5019703;28;20506;-80
2023/01/06 00:12:12;;;;;;;4.40;4.00;;;10.40;99.90;;;;;;5019255;28;20280;-79
2023/01/06 00:14:41;;;;;;;3.58;3.28;;;10.40;99.90;;;;;;5018056;28;20290;-80
2023/01/06 00:17:08;;;;;;;0.90;0.90;;;10.30;99.90;;;;;;5019987;28;20200;-81
2023/01/06 00:19:35;;;;;;;1.23;1.15;;;10.30;99.90;;;;;;5019988;28;20223;-80
2023/01/06 00:22:03;;;;;;;3.45;1.92;;;10.30;99.90;;;;;;5019119;28;20247;-78
2023/01/06 00:24:31;;;;;;;0.87;0.87;;;10.40;99.90;;;;;;5018172;28;20291;-80
2023/01/06 00:26:58;;;;;;;2.53;1.77;;;10.40;99.90;;;;;;5018911;28;20437;-81
2023/01/06 00:29:25;;;;;;;1.35;0.95;;;10.40;99.90;;;;;;5018149;28;20820;-80
2023/01/06 00:31:52;;;;;;;1.80;1.58;;;10.40;99.90;;;;;;5018487;28;20287;-80
2023/01/06 00:34:19;;;;;;;4.15;0.85;;;10.40;99.90;;;;;;5019261;28;20286;-81
2023/01/06 00:36:46;;;;;;;1.17;1.08;;;10.40;99.90;;;;;;5018079;28;20674;-80
2023/01/06 00:39:13;;;;;;;1.88;1.30;;;10.40;99.90;;;;;;5018109;28;20228;-80
2023/01/06 00:44:26;;;;;;;1.13;1.03;;;10.40;99.90;;;;;;5018230;28;20250;-80
2023/01/06 00:46:53;;;;;;;0.87;0.70;;;10.40;99.90;;;;;;5018299;28;20466;-80
2023/01/06 00:49:20;;;;;;;1.80;1.33;;;10.40;99.90;;;;;;5018346;28;21008;-80
2023/01/06 00:51:47;;;;;;;0.50;0.40;;;10.40;99.90;;;;;;5018066;28;20216;-80
2023/01/06 00:54:15;;;;;;;1.58;1.08;;;10.40;99.90;;;;;;5018038;28;20447;-81
2023/01/06 00:56:45;;;;;;;2.35;1.05;;;10.40;99.90;;;;;;5018226;28;20351;-81
2023/01/06 00:59:13;;;;;;;1.45;1.35;;;10.40;99.90;;;;;;5018166;28;20192;-77
2023/01/06 01:01:40;;;;;;;1.27;1.17;;;10.40;99.90;;;;;;5018184;28;20220;-78
2023/01/06 01:04:07;;;;;;;0.50;0.40;;;10.30;99.90;;;;;;5017888;28;20216;-79
2023/01/06 01:06:35;;;;;;;6.53;1.65;;;10.30;99.90;;;;;;5017290;28;20197;-81
2023/01/06 01:09:02;;;;;;;2.95;0.98;;;10.40;99.90;;;;;;5018665;28;20208;-81
2023/01/06 01:14:17;;;;;;;1.30;1.20;;;10.30;99.90;;;;;;5019301;28;20297;-80
2023/01/06 01:16:44;;;;;;;0.50;0.40;;;10.30;99.90;;;;;;5019109;28;20605;-81
2023/01/06 01:19:11;;;;;;;0.50;0.47;;;10.30;99.90;;;;;;5019156;28;20279;-80
2023/01/06 01:21:38;;;;;;;0.50;0.40;;;10.30;99.90;;;;;;5019048;28;20646;-79
2023/01/06 01:24:05;;;;;;;0.70;0.70;;;10.30;99.90;;;;;;5017886;28;20330;-79
2023/01/06 01:26:32;;;;;;;1.63;1.52;;;10.30;99.90;;;;;;5019808;28;20200;-81
2023/01/06 01:28:59;;;;;;;0.50;0.43;;;10.40;99.90;;;;;;5018890;28;20579;-80
2023/01/06 01:31:28;;;;;;;0.50;0.40;;;10.40;99.90;;;;;;5018285;28;20304;-80
2023/01/06 01:33:54;;;;;;;0.50;0.40;;;10.40;99.90;;;;;;5018708;28;20493;-79
2023/01/06 01:36:21;;;;;;;0.52;0.50;;;10.40;99.90;;;;;;5017846;28;20267;-80
2023/01/06 01:38:48;;;;;;;0.50;0.40;;;10.40;99.90;;;;;;5019049;28;20280;-80
2023/01/06 01:41:18;;;;;;;0.70;0.70;;;10.40;99.90;;;;;;5018911;28;20222;-82
2023/01/06 01:43:46;;;;;;;2.08;1.60;;;10.40;99.90;;;;;;5019150;28;20200;-79
2023/01/06 01:46:16;;;;;;;0.73;0.73;;;10.40;99.90;;;;;;5019796;28;20295;-80
2023/01/06 01:48:44;;;;;;;0.50;0.50;;;10.40;99.90;;;;;;5018129;28;20216;-80
2023/01/06 01:51:16;;;;;;;0.95;0.60;;;10.40;99.90;;;;;;5018670;28;20219;-80
2023/01/06 01:53:53;;;;;;;4.05;1.95;;;10.40;99.90;;;;;;5019847;28;20180;-80
2023/01/06 01:56:29;;;;;;;0.70;0.50;;;10.40;99.90;;;;;;5019283;28;20194;-80
2023/01/06 01:59:03;;;;;;;0.63;0.63;;;10.40;99.90;;;;;;5018264;28;20210;-81
2023/01/06 02:01:30;;;;;;;0.50;0.30;;;10.40;99.90;;;;;;5018611;28;20216;-80
2023/01/06 02:03:59;;;;;;;0.60;0.50;;;10.50;99.90;;;;;;5017316;28;20238;-80
2023/01/06 02:06:27;;;;;;;0.50;0.40;;;10.40;99.90;;;;;;5017554;28;20192;-81
2023/01/06 02:09:00;;;;;;;0.50;0.37;;;10.40;99.90;;;;;;5017962;28;20298;-81
2023/01/06 02:11:29;;;;;;;3.90;1.40;;;10.40;99.90;;;;;;5017871;28;20455;-79
2023/01/06 02:14:04;;;;;;;0.60;0.52;;;10.40;99.90;;;;;;5018028;28;20200;-80
2023/01/06 02:16:48;;;;;;;0.70;0.60;;;10.40;99.90;;;;;;5018108;28;20287;-80
2023/01/06 02:19:40;;;;;;;0.52;0.47;;;10.40;99.90;;;;;;5018474;28;20443;-78
2023/01/06 02:22:26;;;;;;;0.82;0.60;;;10.40;99.90;;;;;;5019108;28;20220;-79
2023/01/06 02:25:24;;;;;;;0.75;0.75;;;10.40;99.90;;;;;;5018326;28;20222;-79
2023/01/06 02:28:20;;;;;;;1.67;1.10;;;10.30;99.90;;;;;;5018196;28;20199;-80
2023/01/06 02:31:22;;;;;;;0.50;0.40;;;10.40;99.90;;;;;;5017365;28;20291;-79
2023/01/06 02:33:56;;;;;;;0.70;0.70;;;10.30;99.90;;;;;;5017949;28;20183;-80
2023/01/06 02:36:31;;;;;;;0.93;0.93;;;10.30;99.90;;;;;;5017783;28;20551;-79
2023/01/06 02:39:11;;;;;;;0.63;0.63;;;10.30;99.90;;;;;;5018329;28;20186;-80
2023/01/06 02:41:42;;;;;;;0.73;0.73;;;10.30;99.90;;;;;;5018157;28;20310;-81
2023/01/06 02:44:17;;;;;;;0.70;0.70;;;10.30;99.90;;;;;;5017343;28;20589;-80
2023/01/06 02:46:58;;;;;;;0.50;0.40;;;10.30;99.90;;;;;;5017767;28;20205;-80
2023/01/06 02:49:32;;;;;;;0.50;0.47;;;10.30;99.90;;;;;;5017714;28;20200;-80
2023/01/06 02:52:05;;;;;;;0.83;0.60;;;10.30;99.90;;;;;;5017995;28;20534;-80
2023/01/06 02:54:39;;;;;;;1.02;0.70;;;10.30;99.90;;;;;;5017577;28;20490;-80
2023/01/06 02:57:15;;;;;;;0.50;0.40;;;10.30;99.90;;;;;;5018935;28;20553;-79
2023/01/06 02:59:49;;;;;;;1.08;1.00;;;10.30;99.90;;;;;;5017918;28;20283;-81
2023/01/06 03:02:18;;;;;;;0.73;0.68;;;10.30;99.90;;;;;;5022017;28;20222;-79
2023/01/06 03:04:49;;;;;;;0.50;0.40;;;10.30;99.90;;;;;;5020274;28;20650;-80
2023/01/06 03:07:18;;;;;;;1.40;1.05;;;10.30;99.90;;;;;;5020566;28;20431;-81
2023/01/06 03:09:46;;;;;;;0.70;0.70;;;10.30;99.90;;;;;;5021995;28;20212;-79
2023/01/06 03:12:23;;;;;;;0.70;0.70;;;10.30;99.90;;;;;;5022015;28;20216;-79
2023/01/06 03:14:54;;;;;;;0.80;0.65;;;10.30;99.90;;;;;;5022224;28;20268;-80
2023/01/06 03:17:21;;;;;;;0.60;0.45;;;10.30;99.90;;;;;;5022732;28;20203;-79
2023/01/06 03:19:49;;;;;;;0.50;0.40;;;10.30;99.90;;;;;;5022417;28;20282;-79
2023/01/06 03:22:17;;;;;;;5.18;0.52;;;10.40;99.90;;;;;;5023103;28;20887;-80
2023/01/06 03:24:45;;;;;;;0.70;0.70;;;10.30;99.90;;;;;;5022680;28;20200;-80
2023/01/06 03:27:11;;;;;;;1.20;0.70;;;10.40;99.90;;;;;;5020962;28;20263;-77
2023/01/06 03:29:39;;;;;;;6.33;0.70;;;10.40;99.90;;;;;;5020923;28;20566;-79
2023/01/06 03:32:12;;;;;;;0.50;0.43;;;10.40;99.90;;;;;;5020017;28;20474;-77
2023/01/06 03:34:51;;;;;;;0.60;0.60;;;10.40;99.90;;;;;;5019191;28;20286;-79
2023/01/06 03:37:28;;;;;;;0.50;0.40;;;10.40;99.90;;;;;;5020335;28;20604;-80
2023/01/06 03:40:05;;;;;;;0.80;0.40;;;10.40;99.90;;;;;;5020330;28;20443;-80
2023/01/06 03:45:36;;;;;;;0.57;0.50;;;10.40;99.90;;;;;;5019276;28;20196;-81
2023/01/06 03:48:09;;;;;;;0.60;0.60;;;10.40;99.90;;;;;;5019729;28;20263;-80
2023/01/06 03:50:40;;;;;;;0.57;0.57;;;10.40;99.90;;;;;;5020083;28;20218;-80
2023/01/06 03:53:19;;;;;;;0.82;0.70;;;10.40;99.90;;;;;;5019766;28;20506;-78
2023/01/06 03:55:51;;;;;;;0.90;0.60;;;10.40;99.90;;;;;;5019804;28;20188;-80
2023/01/06 03:58:20;;;;;;;0.70;0.50;;;10.40;99.90;;;;;;5020325;28;20219;-81
2023/01/06 04:00:48;;;;;;;0.50;0.50;;;10.40;99.90;;;;;;5020085;28;20467;-81
2023/01/06 04:03:16;;;;;;;0.95;0.85;;;10.50;99.90;;;;;;5020383;28;20202;-80
2023/01/06 04:05:44;;;;;;;1.57;1.17;;;10.50;99.90;;;;;;5019063;28;20286;-81
2023/01/06 04:08:11;;;;;;;0.50;0.40;;;10.50;99.90;;;;;;5020531;28;20519;-80
2023/01/06 04:10:38;;;;;;;0.50;0.43;;;10.50;99.90;;;;;;5019414;28;20254;-81
2023/01/06 04:13:04;;;;;;;0.70;0.70;;;10.50;99.90;;;;;;5019693;28;21040;-80
2023/01/06 04:15:31;;;;;;;0.60;0.60;;;10.50;99.90;;;;;;5018936;28;20271;-80
2023/01/06 04:17:58;;;;;;;4.68;1.90;;;10.50;99.90;;;;;;5019528;28;20465;-80
2023/01/06 04:20:29;;;;;;;1.13;0.50;;;10.50;99.90;;;;;;5019664;28;20270;-79
2023/01/06 04:22:58;;;;;;;0.60;0.30;;;10.50;99.90;;;;;;5020500;28;20513;-80
2023/01/06 04:25:25;;;;;;;0.60;0.50;;;10.50;99.90;;;;;;5018620;28;20202;-79
2023/01/06 04:27:53;;;;;;;0.50;0.40;;;10.50;99.90;;;;;;5019818;28;20352;-80
2023/01/06 04:30:20;;;;;;;1.60;0.50;;;10.50;99.90;;;;;;5019391;28;20227;-81
2023/01/06 04:32:46;;;;;;;0.50;0.40;;;10.50;99.90;;;;;;5020473;28;20259;-81
2023/01/06 04:35:13;;;;;;;0.65;0.63;;;10.50;99.90;;;;;;5019516;28;20615;-81
2023/01/06 04:37:40;;;;;;;2.27;1.60;;;10.50;99.90;;;;;;5019373;28;20206;-81
2023/01/06 04:40:10;;;;;;;0.68;0.68;;;10.50;99.90;;;;;;5019159;28;20820;-81
2023/01/06 04:45:20;;;;;;;0.50;0.40;;;10.50;99.90;;;;;;5018448;28;20196;-81
2023/01/06 04:47:47;;;;;;;0.82;0.80;;;10.50;99.90;;;;;;5019946;28;20439;-80
2023/01/06 04:50:14;;;;;;;0.50;0.40;;;10.50;99.90;;;;;;5019355;28;20247;-79
2023/01/06 04:52:40;;;;;;;0.50;0.40;;;10.50;99.90;;;;;;5019874;28;20224;-80
2023/01/06 04:55:09;;;;;;;0.50;0.40;;;10.50;99.90;;;;;;5019049;28;20223;-81
2023/01/06 04:57:36;;;;;;;0.85;0.60;;;10.50;99.90;;;;;;5019613;28;20502;-81
2023/01/06 05:00:04;;;;;;;0.50;0.40;;;10.50;99.90;;;;;;5018763;28;20192;-79
2023/01/06 05:02:31;;;;;;;0.93;0.47;;;10.50;99.90;;;;;;5019608;28;20498;-81
2023/01/06 05:04:57;;;;;;;0.50;0.40;;;10.50;99.90;;;;;;5018334;28;20192;-82
2023/01/06 05:07:24;;;;;;;0.70;0.63;;;10.50;99.90;;;;;;5017799;28;21043;-80
2023/01/06 05:09:51;;;;;;;0.55;0.47;;;10.60;99.90;;;;;;5019133;28;20218;-81
2023/01/06 05:12:19;;;;;;;2.40;0.50;;;10.60;99.90;;;;;;5018694;28;20259;-81
2023/01/06 05:14:46;;;;;;;1.42;1.30;;;10.60;99.90;;;;;;5018167;28;20439;-81
2023/01/06 05:17:13;;;;;;;4.32;0.57;;;10.60;99.90;;;;;;5018620;28;20568;-79
2023/01/06 05:19:41;;;;;;;1.23;0.70;;;10.60;99.90;;;;;;5019068;28;20220;-81
2023/01/06 05:22:08;;;;;;;0.63;0.63;;;10.60;99.90;;;;;;5018010;28;20224;-81
2023/01/06 05:24:35;;;;;;;0.50;0.40;;;10.60;99.90;;;;;;5018355;28;20221;-81
2023/01/06 05:27:02;;;;;;;0.60;0.50;;;10.60;99.90;;;;;;5018786;28;20474;-80
2023/01/06 05:29:30;;;;;;;5.07;2.25;;;10.60;99.90;;;;;;5018647;28;20882;-81
2023/01/06 05:31:57;;;;;;;3.90;0.53;;;10.60;99.90;;;;;;5018502;28;20220;-82
2023/01/06 05:34:24;;;;;;;3.47;0.90;;;10.60;99.90;;;;;;5017794;28;20451;-81
2023/01/06 05:36:51;;;;;;;1.85;0.82;;;10.60;99.90;;;;;;5017674;28;20449;-81
2023/01/06 05:39:18;;;;;;;0.60;0.50;;;10.60;99.90;;;;;;5018235;28;20234;-78
2023/01/06 05:41:45;;;;;;;0.50;0.40;;;10.60;99.90;;;;;;5017808;28;20613;-81
2023/01/06 05:44:12;;;;;;;0.63;0.50;;;10.60;99.90;;;;;;5017704;28;20489;-80
2023/01/06 05:46:40;;;;;;;0.50;0.40;;;10.60;99.90;;;;;;5017616;28;20238;-80
2023/01/06 05:49:07;;;;;;;1.07;0.80;;;10.60;99.90;;;;;;5016438;28;20263;-80
2023/01/06 05:51:33;;;;;;;0.93;0.50;;;10.60;99.90;;;;;;5018556;28;20560;-80
2023/01/06 05:54:00;;;;;;;0.80;0.50;;;10.60;99.90;;;;;;5016868;28;20435;-80
2023/01/06 05:56:27;;;;;;;0.50;0.40;;;10.60;99.90;;;;;;5018464;28;20596;-80
2023/01/06 05:58:54;;;;;;;0.63;0.63;;;10.60;99.90;;;;;;5017621;28;20443;-80
2023/01/06 06:01:23;;;;;;;1.53;0.80;;;10.60;99.90;;;;;;5017152;28;20455;-80
2023/01/06 06:03:53;;;;;;;0.50;0.40;;;10.60;99.90;;;;;;5016723;28;20545;-80
2023/01/06 06:06:21;;;;;;;0.50;0.50;;;10.50;99.90;;;;;;5016003;28;20454;-80
2023/01/06 06:08:48;;;;;;;3.25;0.75;;;10.50;99.90;;;;;;5017498;28;20879;-80
2023/01/06 06:11:17;;;;;;;2.17;0.63;;;10.50;99.90;;;;;;5017520;28;20567;-80
2023/01/06 06:13:49;;;;;;;0.60;0.60;;;10.50;99.90;;;;;;5017421;28;20530;-78
2023/01/06 06:16:17;;;;;;;0.68;0.60;;;10.50;99.90;;;;;;5016471;28;20446;-81
2023/01/06 06:18:48;;;;;;;1.63;0.80;;;10.50;99.90;;;;;;5017352;28;20202;-80
2023/01/06 06:21:17;;;;;;;1.55;0.50;;;10.50;99.90;;;;;;5016268;28;20212;-81
2023/01/06 06:23:44;;;;;;;0.50;0.50;;;10.40;99.90;;;;;;5016563;28;20202;-80
2023/01/06 06:26:12;;;;;;;1.02;0.93;;;10.40;99.90;;;;;;5016149;28;20203;-81
2023/01/06 06:28:40;;;;;;;0.50;0.40;;;10.40;99.90;;;;;;5016976;28;20206;-79
2023/01/06 06:31:08;;;;;;;0.80;0.80;;;10.40;99.90;;;;;;5016478;28;20234;-80
2023/01/06 06:33:35;;;;;;;0.80;0.70;;;10.40;99.90;;;;;;5016855;28;20949;-81
2023/01/06 06:36:03;;;;;;;0.60;0.50;;;10.40;99.90;;;;;;5019707;28;20438;-81
2023/01/06 06:38:31;;;;;;;0.60;0.40;;;10.40;99.90;;;;;;5020979;28;20204;-81
2023/01/06 06:40:58;;;;;;;1.08;0.50;;;10.40;99.90;;;;;;5020876;28;20214;-79
2023/01/06 06:43:25;;;;;;;1.13;1.02;;;10.40;99.90;;;;;;5020597;28;20228;-81
2023/01/06 06:45:51;;;;;;;0.60;0.60;;;10.40;99.90;;;;;;5020193;28;20200;-81
2023/01/06 06:48:18;;;;;;;0.60;0.60;;;10.40;99.90;;;;;;5021142;28;20974;-80
2023/01/06 06:50:45;;;;;;;0.90;0.50;;;10.40;99.90;;;;;;5020855;28;20605;-81
2023/01/06 06:53:12;;;;;;;0.70;0.47;;;10.40;99.90;;;;;;5020118;28;20195;-79
2023/01/06 06:55:40;;;;;;;0.80;0.60;;;10.40;99.90;;;;;;5019747;28;20442;-80
2023/01/06 06:58:07;;;;;;;4.83;0.70;;;10.40;99.90;;;;;;5020725;28;20203;-81
2023/01/06 07:00:34;;;;;;;0.50;0.40;;;10.40;99.90;;;;;;5019750;28;20501;-80
2023/01/06 07:03:01;;;;;;;0.50;0.50;;;10.40;99.90;;;;;;5023415;28;20443;-80
2023/01/06 07:05:28;;;;;;;1.00;0.73;;;10.40;99.90;;;;;;5018367;28;20200;-80
2023/01/06 07:07:55;;;;;;;0.80;0.77;;;10.40;99.90;;;;;;5027615;28;20441;-80
2023/01/06 07:10:22;;;;;;;0.50;0.40;;;10.40;99.90;;;;;;5035921;28;20473;-79
2023/01/06 07:12:50;;;;;;;3.13;2.00;;;10.30;99.90;;;;;;5040209;28;20488;-81
2023/01/06 07:15:17;;;;;;;2.80;1.07;;;10.30;99.90;;;;;;5007504;28;20497;-82
2023/01/06 07:17:44;;;;;;;0.73;0.60;;;10.30;99.90;;;;;;5001292;28;20534;-80
2023/01/06 07:20:11;;;;;;;1.40;0.60;;;10.30;99.90;;;;;;5000584;28;20495;-78
2023/01/06 07:22:38;;;;;;;0.85;0.82;;;10.40;99.90;;;;;;5003120;28;20319;-79
2023/01/06 07:25:07;;;;;;;0.60;0.50;;;10.40;99.90;;;;;;5000948;28;20189;-81
2023/01/06 07:27:34;;;;;;;0.60;0.50;;;10.40;99.90;;;;;;5000290;28;20446;-80
2023/01/06 07:30:02;;;;;;;0.50;0.50;;;10.40;99.90;;;;;;4999949;28;20869;-79
2023/01/06 07:32:29;;;;;;;0.60;0.50;;;10.40;99.90;;;;;;5000392;28;20189;-81
2023/01/06 07:34:56;;;;;;;1.13;0.60;;;10.50;99.90;;;;;;5011150;28;20980;-80
2023/01/06 07:37:23;;;;;;;0.60;0.60;;;10.50;99.90;;;;;;5018293;28;20478;-81
2023/01/06 07:39:50;;;;;;;0.50;0.40;;;10.50;99.90;;;;;;5019005;28;20474;-79
2023/01/06 07:42:16;;;;;;;0.70;0.57;;;10.50;99.90;;;;;;5018914;28;20525;-80
2023/01/06 07:44:43;;;;;;;0.50;0.40;;;10.50;99.90;;;;;;5017909;28;20438;-80
2023/01/06 07:47:11;;;;;;;0.50;0.50;;;10.50;99.90;;;;;;5016230;28;20525;-81
2023/01/06 07:49:38;;;;;;;1.13;0.60;;;10.60;99.90;;;;;;5018870;28;20480;-83
2023/01/06 07:52:05;;;;;;;0.80;0.70;;;10.60;99.90;;;;;;5018562;28;20490;-81
2023/01/06 07:54:32;;;;;;;0.53;0.47;;;10.60;99.90;;;;;;5018017;28;20447;-84
2023/01/06 07:56:59;;;;;;;0.50;0.40;;;10.60;99.90;;;;;;5019015;28;20864;-81
2023/01/06 07:59:26;;;;;;;0.60;0.40;;;10.60;99.90;;;;;;5028935;28;20470;-81
2023/01/06 08:01:52;;;;;;;0.87;0.60;;;10.60;99.90;;;;;;5022291;28;20506;-83
2023/01/06 08:04:21;;;;;;;0.50;0.50;;;10.60;99.90;;;;;;5018768;28;20850;-83
2023/01/06 08:06:47;;;;;;;0.90;0.73;;;10.60;99.90;;;;;;5019699;28;20466;-81
2023/01/06 08:09:14;;;;;;;0.50;0.40;;;10.60;99.90;;;;;;5019763;28;20509;-84
2023/01/06 08:11:41;;;;;;;0.70;0.50;;;10.60;99.90;;;;;;5020775;28;20230;-80
2023/01/06 08:14:08;;;;;;;1.73;1.07;;;10.60;99.90;;;;;;5020226;28;20858;-82
2023/01/06 08:16:35;;;;;;;0.70;0.60;;;10.60;99.90;;;;;;5019855;28;20498;-83
2023/01/06 08:19:04;;;;;;;0.90;0.60;;;10.60;99.90;;;;;;5020085;28;20475;-82
2023/01/06 08:21:32;;;;;;;0.63;0.50;;;10.60;99.90;;;;;;5019316;28;20455;-80
2023/01/06 08:23:59;;;;;;;1.03;0.70;;;10.60;99.90;;;;;;5019043;28;20446;-81
2023/01/06 08:26:26;;;;;;;0.57;0.47;;;10.60;99.90;;;;;;5019208;28;20558;-82
2023/01/06 08:28:54;;;;;;;1.20;1.10;;;10.60;99.90;;;;;;5019025;28;20438;-81
2023/01/06 08:31:21;;;;;;;0.60;0.57;;;10.50;99.90;;;;;;5018763;28;20490;-82
2023/01/06 08:33:50;;;;;;;0.60;0.50;;;10.50;99.90;;;;;;5019094;28;20203;-81
2023/01/06 08:36:18;;;;;;;1.58;1.48;;;10.50;99.90;;;;;;5018716;28;20471;-82
2023/01/06 08:38:47;;;;;;;0.50;0.50;;;10.40;99.90;;;;;;5019413;28;20230;-82
2023/01/06 08:41:14;;;;;;;0.60;0.43;;;10.30;99.90;;;;;;5018649;28;20542;-81
2023/01/06 08:43:43;;;;;;;0.50;0.40;;;10.30;99.90;;;;;;5019317;28;20283;-82
2023/01/06 08:46:12;;;;;;;1.40;0.57;;;10.30;99.90;;;;;;5016943;28;20669;-83
2023/01/06 08:48:39;;;;;;;1.00;0.43;;;10.30;99.90;;;;;;5018440;28;20505;-81
2023/01/06 08:51:09;;;;;;;0.70;0.68;;;10.30;99.90;;;;;;5018240;28;20510;-82
2023/01/06 08:53:36;;;;;;;1.08;0.77;;;10.30;99.90;;;;;;5018725;28;20259;-82
2023/01/06 08:56:04;;;;;;;0.50;0.50;;;10.30;99.90;;;;;;5018196;28;20199;-81
2023/01/06 08:58:31;;;;;;;0.50;0.40;;;10.20;99.90;;;;;;5018079;28;20633;-82
2023/01/06 09:00:58;;;;;;;0.77;0.63;;;10.20;99.90;;;;;;5018603;28;20303;-82
2023/01/06 09:03:25;;;;;;;1.33;1.00;;;10.20;99.90;;;;;;5018102;28;20282;-82
2023/01/06 09:05:55;;;;;;;0.50;0.50;;;10.20;99.90;;;;;;5031731;28;20435;-82
2023/01/06 09:08:22;;;;;;;2.10;2.00;;;10.30;99.90;;;;;;5029886;28;20499;-79
2023/01/06 09:10:49;;;;;;;0.60;0.50;;;10.30;99.90;;;;;;5029668;28;20235;-82
2023/01/06 09:13:17;;;;;;;0.50;0.50;;;10.30;99.90;;;;;;5029938;28;20259;-80
2023/01/06 09:15:47;;;;;;;0.80;0.67;;;10.30;99.90;;;;;;5029534;28;20220;-80
2023/01/06 09:18:14;;;;;;;0.50;0.50;;;10.30;99.90;;;;;;5029372;28;20462;-79
2023/01/06 09:20:41;;;;;;;0.70;0.50;;;10.30;99.90;;;;;;5031909;28;20223;-83
2023/01/06 09:23:08;;;;;;;0.67;0.60;;;10.30;99.90;;;;;;5033015;28;20200;-80
2023/01/06 09:25:35;;;;;;;0.73;0.73;;;10.30;99.90;;;;;;5031448;28;20445;-81
2023/01/06 09:28:02;;;;;;;0.50;0.50;;;10.30;99.90;;;;;;5034185;28;20199;-82
2023/01/06 09:30:31;;;;;;;0.50;0.40;;;10.40;99.90;;;;;;5031888;28;20212;-79
2023/01/06 09:32:57;;;;;;;1.98;0.52;;;10.40;99.90;;;;;;5030921;28;20203;-79
2023/01/06 09:35:24;;;;;;;0.90;0.90;;;10.30;99.90;;;;;;5031687;28;20241;-82
2023/01/06 09:37:51;;;;;;;2.55;0.50;;;10.30;99.90;;;;;;5019692;28;20259;-81
2023/01/06 09:40:22;;;;;;;1.27;1.17;;;10.30;99.90;;;;;;5017487;28;20192;-81
2023/01/06 09:43:01;;;;;;;0.60;0.50;;;10.30;99.90;;;;;;5017380;28;20329;-81
2023/01/06 09:45:35;;;;;;;0.60;0.60;;;10.20;99.90;;;;;;5016160;28;20274;-81
2023/01/06 09:48:05;;;;;;;1.03;0.93;;;10.20;99.90;;;;;;5017468;28;20270;-82
2023/01/06 09:50:37;;;;;;;0.75;0.75;;;10.20;99.90;;;;;;5017145;28;20510;-81
2023/01/06 09:53:11;;;;;;;0.60;0.60;;;10.20;99.90;;;;;;5017369;28;20672;-81
2023/01/06 09:55:42;;;;;;;1.73;0.90;;;10.10;99.90;;;;;;5015785;28;20474;-81
2023/01/06 09:58:13;;;;;;;1.30;1.20;;;10.10;99.90;;;;;;5017599;28;20702;-81
2023/01/06 10:00:44;;;;;;;0.73;0.70;;;10.10;99.90;;;;;;5017646;28;20459;-81
2023/01/06 10:03:14;;;;;;;0.93;0.93;;;10.00;99.90;;;;;;5016133;28;20310;-83
2023/01/06 10:05:50;;;;;;;0.70;0.70;;;10.00;99.90;;;;;;5017741;28;20470;-81
2023/01/06 10:08:28;;;;;;;2.92;2.72;;;10.10;99.90;;;;;;5017358;28;20426;-81
2023/01/06 10:11:13;;;;;;;0.60;0.60;;;10.10;99.90;;;;;;5016639;28;20216;-82
2023/01/06 10:13:55;;;;;;;2.90;2.70;;;10.10;99.90;;;;;;5032193;28;20283;-83
2023/01/06 10:16:32;;;;;;;1.92;1.70;;;10.10;99.90;;;;;;5013270;28;20203;-82
2023/01/06 10:19:05;;;;;;;1.20;0.95;;;10.10;99.90;;;;;;5001707;28;20196;-81
2023/01/06 10:21:40;;;;;;;0.50;0.40;;;10.10;99.90;;;;;;5001593;28;20574;-83
2023/01/06 10:24:36;;;;;;;0.70;0.60;;;10.10;99.90;;;;;;5001486;28;20180;-82
2023/01/06 10:27:19;;;;;;;1.65;1.52;;;10.10;99.90;;;;;;5001835;28;20189;-81
2023/01/06 10:29:47;;;;;;;1.70;1.58;;;10.10;99.90;;;;;;5001351;28;20710;-82
2023/01/06 10:32:17;;;;;;;0.60;0.50;;;10.20;99.90;;;;;;5001048;28;20280;-81
2023/01/06 10:34:46;;;;;;;1.55;1.45;;;10.20;99.90;;;;;;5001864;28;20255;-83
2023/01/06 10:37:19;;;;;;;1.48;1.35;;;10.30;99.90;;;;;;5000874;28;20192;-82
2023/01/06 10:39:50;;;;;;;1.50;1.30;;;10.40;99.90;;;;;;5001047;28;20201;-81
2023/01/06 10:45:12;;;;;;;3.20;2.97;;;10.50;99.90;;;;;;5001079;28;20184;-83
2023/01/06 10:47:42;;;;;;;2.63;2.40;;;10.50;99.90;;;;;;4998757;28;20546;-83
2023/01/06 10:50:13;;;;;;;1.15;1.15;;;10.50;99.90;;;;;;5002269;28;20443;-82
2023/01/06 10:52:40;;;;;;;1.30;1.20;;;10.50;99.90;;;;;;5001734;28;20276;-82
2023/01/06 10:55:07;;;;;;;1.00;1.00;;;10.60;99.90;;;;;;4999883;28;20527;-81
2023/01/06 10:57:40;;;;;;;1.40;0.87;;;10.70;99.90;;;;;;5001267;28;20193;-83
2023/01/06 11:00:14;;;;;;;1.60;1.50;;;10.70;99.90;;;;;;5000126;28;20490;-78
2023/01/06 11:02:48;;;;;;;1.30;0.70;;;10.80;99.90;;;;;;5000594;28;20427;-82
2023/01/06 11:05:17;;;;;;;0.60;0.60;;;10.80;99.90;;;;;;4999853;28;20291;-80
2023/01/06 11:07:55;;;;;;;1.35;0.73;;;10.80;99.90;;;;;;5000687;28;20444;-82
2023/01/06 11:10:32;;;;;;;0.97;0.70;;;10.80;99.90;;;;;;5000495;28;20203;-81
2023/01/06 11:13:02;;;;;;;0.90;0.90;;;10.90;99.90;;;;;;5001198;28;20429;-81
2023/01/06 11:15:39;;;;;;;1.23;1.13;;;10.90;99.90;;;;;;4999403;28;20872;-81
2023/01/06 11:18:20;;;;;;;2.50;2.20;;;10.90;99.90;;;;;;5002033;28;20527;-82
2023/01/06 11:21:03;;;;;;;0.60;0.43;;;10.90;99.90;;;;;;5010580;28;20499;-82
2023/01/06 11:23:30;;;;;;;0.90;0.90;;;10.90;99.90;;;;;;5001630;28;20424;-83
2023/01/06 11:26:13;;;;;;;0.60;0.50;;;11.00;99.90;;;;;;5000056;28;20432;-83
2023/01/06 11:28:42;;;;;;;0.70;0.70;;;11.10;99.90;;;;;;4999962;28;20424;-81
2023/01/06 11:31:16;;;;;;;0.50;0.50;;;11.10;99.90;;;;;;4999469;28;20574;-82
2023/01/06 11:33:50;;;;;;;0.50;0.40;;;11.20;99.90;;;;;;5000248;28;20510;-81
2023/01/06 11:36:18;;;;;;;1.20;1.10;;;11.20;99.90;;;;;;4998626;28;20861;-82
2023/01/06 11:38:47;;;;;;;34.87;1.70;;;11.20;99.90;;;;;;4999085;28;20502;-81
2023/01/06 11:41:24;;;;;;;1.23;1.13;;;11.30;99.90;;;;;;4999304;28;20539;-81
2023/01/06 11:43:54;;;;;;;0.50;0.40;;;11.30;99.90;;;;;;4999662;28;20435;-81
2023/01/06 11:46:24;;;;;;;3.70;0.70;;;11.40;99.90;;;;;;4997221;28;20440;-81
2023/01/06 11:48:58;;;;;;;0.70;0.50;;;11.40;99.90;;;;;;4998311;28;20448;-81
2023/01/06 11:51:45;;;;;;;0.50;0.40;;;11.50;99.90;;;;;;4999801;28;20506;-81
2023/01/06 11:54:24;;;;;;;0.80;0.80;;;11.50;99.90;;;;;;5001962;28;21337;-83
2023/01/06 11:57:04;;;;;;;0.90;0.70;;;11.80;99.90;;;;;;5004167;28;20439;-81
2023/01/06 11:59:45;;;;;;;1.10;0.90;;;11.80;99.90;;;;;;4999764;28;20430;-82
2023/01/06 12:02:21;;;;;;;0.50;0.40;;;12.00;99.90;;;;;;4999218;28;20546;-80
2023/01/06 12:04:53;;;;;;;0.60;0.60;;;12.20;99.90;;;;;;4999161;28;20497;-81
2023/01/06 12:07:26;;;;;;;1.30;1.20;;;12.30;99.90;;;;;;5000474;28;20448;-80
2023/01/06 12:09:58;;;;;;;2.40;1.43;;;12.30;99.90;;;;;;5004711;28;20501;-80
2023/01/06 12:12:27;;;;;;;1.67;1.63;;;12.30;99.90;;;;;;5001453;28;20936;-80
2023/01/06 12:14:55;;;;;;;1.33;0.57;;;12.40;99.90;;;;;;4997813;28;20448;-81
2023/01/06 12:17:35;;;;;;;0.70;0.60;;;12.50;99.90;;;;;;4997855;28;20435;-80
2023/01/06 12:20:07;;;;;;;0.60;0.53;;;12.80;99.90;;;;;;4998894;28;20975;-81
2023/01/06 12:22:39;;;;;;;0.60;0.60;;;12.90;99.90;;;;;;4999411;28;20471;-80
2023/01/06 12:25:13;;;;;;;0.50;0.40;;;12.80;99.90;;;;;;4998542;28;20454;-81
2023/01/06 12:27:45;;;;;;;0.50;0.40;;;12.80;99.90;;;;;;4999152;28;20436;-81
2023/01/06 12:30:19;;;;;;;1.40;1.30;;;12.70;99.90;;;;;;5000037;28;20428;-81
2023/01/06 12:32:49;;;;;;;1.50;0.70;;;12.60;99.90;;;;;;4997962;28;20536;-81
2023/01/06 12:35:24;;;;;;;0.50;0.40;;;12.60;99.90;;;;;;4997637;28;20450;-80
2023/01/06 12:37:55;;;;;;;0.50;0.40;;;12.60;99.90;;;;;;4998462;28;20785;-80
2023/01/06 12:40:29;;;;;;;0.73;0.73;;;12.50;99.90;;;;;;4998830;28;20515;-81
2023/01/06 12:43:01;;;;;;;0.53;0.43;;;12.60;99.90;;;;;;4998488;28;20463;-81
2023/01/06 12:45:36;;;;;;;1.03;0.93;;;12.60;99.90;;;;;;4997561;28;20431;-81
2023/01/06 12:48:11;;;;;;;0.50;0.40;;;12.70;99.90;;;;;;4998438;28;20459;-81
2023/01/06 12:50:42;;;;;;;0.50;0.30;;;12.70;99.90;;;;;;4998369;28;20514;-80
2023/01/06 12:53:13;;;;;;;0.50;0.37;;;12.60;99.90;;;;;;4998829;28;20518;-79
2023/01/06 12:55:46;;;;;;;0.50;0.40;;;12.60;99.90;;;;;;4996704;28;20448;-80
2023/01/06 12:58:24;;;;;;;1.37;1.27;;;12.60;99.90;;;;;;4997669;28;20436;-81
2023/01/06 13:00:54;;;;;;;0.50;0.40;;;12.60;99.90;;;;;;4998353;28;20474;-82
2023/01/06 13:03:58;;;;;;;0.90;0.80;;;12.60;99.90;;;;;;4998307;28;20516;-82
2023/01/06 13:06:52;;;;;;;0.50;0.40;;;12.50;99.90;;;;;;4999147;28;20507;-82
2023/01/06 13:09:40;;;;;;;0.50;0.40;;;12.50;99.90;;;;;;5016973;28;20458;-82
2023/01/06 13:12:29;;;;;;;0.50;0.50;;;12.50;99.90;;;;;;5009811;28;20568;-80
2023/01/06 13:15:03;;;;;;;0.80;0.50;;;12.40;99.90;;;;;;4998509;28;20446;-82
2023/01/06 13:17:44;;;;;;;0.60;0.60;;;12.40;99.90;;;;;;5007220;28;20519;-81
2023/01/06 13:20:21;;;;;;;0.50;0.40;;;12.40;99.90;;;;;;4999803;28;20543;-82